Huggins, Missouri
Current Conditions -  °F | °C
As of 8:58 PM on Friday 28 Nov 2014 (Local Time) from KTBN Reporting Station
Clear Clear  
Wind Chill: 42°   Ceiling: Unl
Heat Index: 46°   Visibility: 10mi
Dew Point: 36°   Wind: 8mph
Humidity: 67%   Direction: 180°S
Pressure: 29.9"   Gusts: NA
Location:  37.32°N, 92.2°W
Report Text: KTBN 290258Z AUTO 18007KT 10SM CLR 08/02 A2990 RMK AO2 SLP131 T00780021 53001 $
Loading
Personal Weather Stations






























Interactive Weather Map New forecast layout! Learn more

10-Day Weather Forecast

Advertisements
Track Severe Weather on mobile